createdAt,value
2018-08-20T00:02:04.698Z,9.53
2018-08-20T00:04:38.778Z,10.03
2018-08-20T00:07:08.198Z,10.17
2018-08-20T00:09:42.359Z,9.43
2018-08-20T00:12:11.077Z,10.40
2018-08-20T00:14:40.277Z,10.13
2018-08-20T00:17:09.497Z,10.20
2018-08-20T00:19:40.837Z,9.40
2018-08-20T00:22:10.457Z,10.60
2018-08-20T00:24:39.259Z,9.00
2018-08-20T00:27:08.198Z,8.80
2018-08-20T00:29:37.999Z,10.43
2018-08-20T00:32:07.039Z,10.13
2018-08-20T00:34:36.177Z,10.43
2018-08-20T00:37:05.218Z,10.00
2018-08-20T00:39:33.978Z,10.20
2018-08-20T00:42:02.942Z,10.40
2018-08-20T00:44:31.940Z,10.37
2018-08-20T00:47:00.698Z,9.90
2018-08-20T00:49:29.938Z,10.80
2018-08-20T00:51:58.977Z,10.90
2018-08-20T00:54:27.798Z,10.03
2018-08-20T00:56:56.698Z,10.63
2018-08-20T00:59:25.545Z,10.23
2018-08-20T01:01:54.824Z,10.30
2018-08-20T01:04:23.723Z,10.57
2018-08-20T01:06:52.884Z,11.27
2018-08-20T01:09:23.238Z,10.40
2018-08-20T01:11:52.037Z,11.10
2018-08-20T01:14:21.357Z,10.73
2018-08-20T01:16:50.278Z,11.00
2018-08-20T01:19:19.522Z,10.60
2018-08-20T01:26:44.437Z,10.80
2018-08-20T01:31:41.799Z,10.80
2018-08-20T01:34:11.396Z,10.70
2018-08-20T01:36:40.256Z,10.53
2018-08-20T01:39:09.160Z,10.87
2018-08-20T01:41:38.276Z,11.37
2018-08-20T01:44:08.277Z,10.60
2018-08-20T01:46:37.096Z,10.80
2018-08-20T01:49:06.036Z,11.57
2018-08-20T01:51:35.256Z,11.10
2018-08-20T01:54:04.315Z,11.93
2018-08-20T01:56:33.317Z,11.00
2018-08-20T01:59:02.444Z,11.53
2018-08-20T02:01:31.822Z,11.33
2018-08-20T02:04:01.000Z,12.50
2018-08-20T02:06:30.341Z,11.47
2018-08-20T02:08:59.441Z,11.53
2018-08-20T02:11:28.364Z,12.33
2018-08-20T02:13:58.059Z,11.80
2018-08-20T02:16:27.420Z,11.00
2018-08-20T02:18:56.400Z,11.50
2018-08-20T02:21:25.459Z,12.00
2018-08-20T02:23:54.399Z,12.40
2018-08-20T02:26:23.320Z,12.27
2018-08-20T02:28:52.519Z,12.37
2018-08-20T02:56:01.960Z,13.40
2018-08-20T03:33:03.398Z,12.87
2018-08-20T03:35:32.519Z,13.27
2018-08-20T03:38:01.698Z,12.67
2018-08-20T03:40:30.738Z,13.30
2018-08-20T03:45:32.058Z,12.77
2018-08-20T03:48:01.018Z,13.13
2018-08-20T03:50:30.119Z,13.00
2018-08-20T03:52:58.938Z,12.03
2018-08-20T03:55:27.978Z,13.00
2018-08-20T03:57:56.839Z,12.80
2018-08-20T04:00:25.753Z,12.53
2018-08-20T04:02:55.423Z,13.70
2018-08-20T04:05:24.203Z,12.73
2018-08-20T04:07:53.262Z,13.50
2018-08-20T04:10:22.282Z,12.73
2018-08-20T04:12:51.182Z,12.83
2018-08-20T04:15:20.582Z,12.73
2018-08-20T04:17:49.802Z,13.70
2018-08-20T04:20:18.681Z,13.00
2018-08-20T04:22:47.821Z,13.10
2018-08-20T04:25:16.780Z,12.80
2018-08-20T04:27:45.638Z,13.33
2018-08-20T04:30:14.679Z,13.30
2018-08-20T04:32:43.885Z,13.37
2018-08-20T04:35:13.000Z,13.10
2018-08-20T04:50:02.071Z,11.10
2018-08-20T04:52:31.038Z,10.67
2018-08-20T05:02:25.002Z,11.60
2018-08-20T05:04:58.242Z,10.10
2018-08-20T05:07:27.222Z,10.73
2018-08-20T05:09:56.253Z,10.60
2018-08-20T05:12:25.383Z,10.72
2018-08-20T05:14:54.383Z,10.38
2018-08-20T05:17:23.505Z,11.10
2018-08-20T05:19:52.682Z,10.60
2018-08-20T05:22:21.532Z,10.48
2018-08-20T05:24:50.946Z,10.45
2018-08-20T05:27:19.907Z,10.63
2018-08-20T05:32:17.321Z,10.03
2018-08-20T05:34:46.281Z,10.50
2018-08-20T05:37:15.261Z,10.38
2018-08-20T05:39:44.401Z,9.88
2018-08-20T05:42:13.142Z,10.10
2018-08-20T05:44:42.023Z,10.00
2018-08-20T05:47:11.240Z,9.88
2018-08-20T05:49:40.251Z,9.60
2018-08-20T05:52:09.021Z,10.20
2018-08-20T05:54:38.761Z,10.00
2018-08-20T05:57:08.201Z,9.43
2018-08-20T05:59:37.142Z,9.15
2018-08-20T06:02:06.194Z,9.68
2018-08-20T06:04:35.615Z,9.00
2018-08-20T06:07:04.742Z,9.15
2018-08-20T06:09:33.422Z,8.73
2018-08-20T06:12:02.355Z,8.38
2018-08-20T06:14:31.182Z,8.83
2018-08-20T06:16:59.768Z,8.30
2018-08-20T06:19:32.517Z,8.53
2018-08-20T06:22:01.186Z,8.70
2018-08-20T06:24:45.285Z,8.45
2018-08-20T06:27:14.097Z,8.25
2018-08-20T06:29:42.858Z,8.35
2018-08-20T06:32:11.464Z,8.50
2018-08-20T06:34:40.058Z,7.70
2018-08-20T06:37:08.649Z,8.40
2018-08-20T06:39:37.205Z,8.15
2018-08-20T06:42:06.019Z,8.60
2018-08-20T06:44:34.705Z,7.85
2018-08-20T06:47:03.307Z,7.92
2018-08-20T06:49:32.483Z,8.33
2018-08-20T06:52:01.362Z,7.97
2018-08-20T06:54:32.096Z,8.30
2018-08-20T06:57:00.971Z,8.15
2018-08-20T06:59:29.872Z,8.40
2018-08-20T07:01:58.699Z,8.70
2018-08-20T07:04:27.562Z,8.70
2018-08-20T07:06:56.477Z,8.93
2018-08-20T07:09:25.421Z,8.53
2018-08-20T07:11:54.228Z,8.98
2018-08-20T07:14:22.924Z,8.53
2018-08-20T07:16:51.701Z,9.03
2018-08-20T07:19:20.557Z,8.80
2018-08-20T07:21:49.367Z,9.40
2018-08-20T07:24:18.258Z,9.23
2018-08-20T07:26:47.279Z,8.58
2018-08-20T07:29:22.617Z,8.33
2018-08-20T07:31:51.468Z,8.68
2018-08-20T07:34:20.634Z,8.08
2018-08-20T07:36:49.355Z,7.60
2018-08-20T07:39:18.635Z,7.70
2018-08-20T07:41:47.755Z,7.70
2018-08-20T07:44:16.758Z,7.05
2018-08-20T07:46:45.479Z,7.80
2018-08-20T07:49:18.500Z,7.17
2018-08-20T07:51:51.566Z,7.00
2018-08-20T07:54:20.519Z,7.30
2018-08-20T07:56:49.359Z,7.35
2018-08-20T07:59:18.121Z,7.62
2018-08-20T08:01:51.120Z,6.80
2018-08-20T08:04:19.900Z,7.03
2018-08-20T08:06:49.162Z,6.75
2018-08-20T08:09:18.081Z,7.03
2018-08-20T08:11:46.921Z,6.60
2018-08-20T08:14:15.795Z,6.35
2018-08-20T08:16:44.621Z,6.45
2018-08-20T08:19:13.480Z,6.87
2018-08-20T08:21:42.340Z,6.72
2018-08-20T08:24:11.141Z,6.33
2018-08-20T08:26:39.881Z,6.75
2018-08-20T08:29:08.680Z,7.08
2018-08-20T08:31:37.800Z,6.83
2018-08-20T08:34:06.661Z,7.58
2018-08-20T08:36:35.501Z,7.53
2018-08-20T08:39:05.541Z,7.40
2018-08-20T08:41:34.603Z,8.18
2018-08-20T08:44:03.497Z,7.80
2018-08-20T08:46:32.376Z,7.53
2018-08-20T08:49:01.356Z,7.08
2018-08-20T08:51:30.136Z,8.08
2018-08-20T08:56:26.721Z,8.08
2018-08-20T08:58:55.436Z,7.33
2018-08-20T09:01:28.399Z,7.72
2018-08-20T09:03:57.482Z,7.60
2018-08-20T09:06:26.240Z,6.58
2018-08-20T09:08:54.940Z,7.47
2018-08-20T09:11:23.800Z,8.08
2018-08-20T09:16:25.635Z,8.13
2018-08-20T09:18:54.339Z,7.55
2018-08-20T09:21:22.956Z,7.35
2018-08-20T09:23:51.721Z,7.62
2018-08-20T09:26:20.622Z,7.80
2018-08-20T09:28:53.957Z,7.92
2018-08-20T09:31:22.920Z,9.80
2018-08-20T09:33:51.718Z,8.68
2018-08-20T09:36:20.555Z,7.70
2018-08-20T09:38:49.436Z,7.95
2018-08-20T09:41:22.696Z,9.18
2018-08-20T09:43:51.536Z,8.55
2018-08-20T09:46:20.355Z,8.25
2018-08-20T09:48:53.356Z,8.25
2018-08-20T09:51:22.135Z,8.95
2018-08-20T09:53:50.897Z,8.58
2018-08-20T09:56:19.736Z,8.68
2018-08-20T09:58:48.695Z,8.45
2018-08-20T10:01:17.525Z,8.00
2018-08-20T10:03:47.519Z,8.50
2018-08-20T10:06:16.757Z,8.43
2018-08-20T10:08:45.537Z,8.48
2018-08-20T10:11:14.618Z,8.03
2018-08-20T10:13:43.396Z,8.30
2018-08-20T10:16:12.238Z,7.58
2018-08-20T10:21:14.278Z,7.50
2018-08-20T10:23:43.105Z,8.08
2018-08-20T10:26:11.898Z,7.80
2018-08-20T10:28:40.677Z,8.15
2018-08-20T10:31:09.442Z,7.78
2018-08-20T10:33:38.346Z,7.40
2018-08-20T10:36:07.118Z,7.75
2018-08-20T10:38:35.825Z,7.97
2018-08-20T10:41:04.677Z,7.67
2018-08-20T10:43:33.629Z,8.00
2018-08-20T10:46:07.618Z,7.78
2018-08-20T10:48:36.418Z,8.00
2018-08-20T10:51:05.317Z,7.20
2018-08-20T10:53:34.058Z,8.10
2018-08-20T10:56:02.958Z,7.53
2018-08-20T10:58:31.758Z,7.92
2018-08-20T11:01:00.760Z,7.72
2018-08-20T11:03:29.602Z,7.58
2018-08-20T11:05:58.302Z,8.08
2018-08-20T11:08:27.240Z,6.90
2018-08-20T11:10:56.011Z,7.20
2018-08-20T11:13:28.960Z,7.28
2018-08-20T11:15:57.676Z,7.53
2018-08-20T11:18:26.503Z,7.40
2018-08-20T11:20:59.379Z,7.80
2018-08-20T11:23:28.098Z,7.30
2018-08-20T11:26:01.020Z,7.62
2018-08-20T11:28:29.663Z,7.03
2018-08-20T11:30:58.599Z,7.47
2018-08-20T11:33:27.358Z,7.37
2018-08-20T11:35:56.484Z,7.33
2018-08-20T11:38:25.383Z,7.53
2018-08-20T11:40:54.219Z,7.40
2018-08-20T11:43:23.125Z,6.92
2018-08-20T11:45:52.022Z,6.80
2018-08-20T11:48:21.079Z,6.72
2018-08-20T11:50:49.999Z,6.87
2018-08-20T11:53:18.926Z,7.22
2018-08-20T11:55:47.900Z,7.20
2018-08-20T11:58:16.698Z,7.75
2018-08-20T12:00:45.637Z,7.90
2018-08-20T12:03:14.596Z,7.53
2018-08-20T12:05:43.417Z,7.50
2018-08-20T12:08:12.236Z,7.12
2018-08-20T12:10:41.056Z,7.50
2018-08-20T12:13:09.998Z,7.50
2018-08-20T12:15:38.996Z,7.20
2018-08-20T12:18:07.876Z,8.13
2018-08-20T12:20:36.786Z,7.58
2018-08-20T12:23:05.625Z,7.15
2018-08-20T12:25:34.420Z,7.53
2018-08-20T12:28:03.215Z,7.72
2018-08-20T12:30:32.036Z,7.22
2018-08-20T12:33:00.816Z,7.58
2018-08-20T12:35:29.655Z,7.67
2018-08-20T12:37:58.655Z,7.37
2018-08-20T12:40:27.884Z,7.33
2018-08-20T12:42:56.515Z,8.13
2018-08-20T12:45:25.559Z,7.22
2018-08-20T12:47:54.516Z,7.62
2018-08-20T12:50:23.357Z,7.70
2018-08-20T12:52:52.668Z,7.70
2018-08-20T12:55:21.936Z,7.92
2018-08-20T12:57:50.776Z,7.83
2018-08-20T13:00:21.469Z,7.30
2018-08-20T13:02:50.698Z,7.35
2018-08-20T13:05:19.716Z,7.62
2018-08-20T13:10:21.856Z,7.28
2018-08-20T13:12:50.716Z,6.95
2018-08-20T13:15:19.645Z,7.22
2018-08-20T13:17:48.519Z,6.95
2018-08-20T13:20:17.317Z,7.50
2018-08-20T13:22:46.117Z,7.70
2018-08-20T13:25:14.922Z,7.37
2018-08-20T13:27:43.737Z,6.80
2018-08-20T13:30:12.516Z,6.50
2018-08-20T13:32:41.600Z,6.58
2018-08-20T13:35:10.362Z,6.83
2018-08-20T13:37:39.618Z,4.75
2018-08-20T13:40:08.796Z,4.62
2018-08-20T13:42:37.616Z,5.00
2018-08-20T13:45:06.598Z,5.58
2018-08-20T13:47:35.397Z,5.53
2018-08-20T13:50:12.439Z,5.78
2018-08-20T13:52:42.516Z,6.12
2018-08-20T13:55:11.319Z,6.33
2018-08-20T13:57:49.154Z,5.97
2018-08-20T14:00:21.217Z,5.65
2018-08-20T14:02:50.281Z,5.50
2018-08-20T14:05:19.145Z,5.60
2018-08-20T14:07:48.405Z,5.80
2018-08-20T14:10:17.110Z,5.15
2018-08-20T14:12:45.896Z,5.40
2018-08-20T14:15:15.320Z,5.17
2018-08-20T14:17:44.763Z,5.15
2018-08-20T14:20:14.903Z,5.00
2018-08-20T14:22:44.661Z,5.08
2018-08-20T14:25:13.563Z,5.03
2018-08-20T14:27:42.457Z,4.78
2018-08-20T14:30:13.505Z,5.30
2018-08-20T14:32:42.740Z,5.83
2018-08-20T14:35:15.999Z,5.40
2018-08-20T14:37:49.142Z,5.08
2018-08-20T14:40:19.061Z,5.67
2018-08-20T14:42:47.940Z,5.07
2018-08-20T14:45:17.358Z,4.62
2018-08-20T14:47:46.684Z,4.92
2018-08-20T14:50:16.903Z,4.50
2018-08-20T14:52:45.901Z,4.67
2018-08-20T14:55:14.920Z,4.65
2018-08-20T14:57:43.656Z,4.50
2018-08-20T15:00:14.008Z,4.42
2018-08-20T15:02:42.834Z,4.50
2018-08-20T15:05:11.593Z,4.73
2018-08-20T15:07:40.364Z,4.53
2018-08-20T15:10:09.958Z,5.10
2018-08-20T15:12:38.890Z,4.60
2018-08-20T15:15:08.867Z,4.75
2018-08-20T15:17:37.658Z,4.60
2018-08-20T15:20:07.061Z,4.70
2018-08-20T15:22:35.937Z,5.03
2018-08-20T15:27:38.140Z,4.80
2018-08-20T15:30:06.941Z,4.87
2018-08-20T15:32:35.893Z,4.95
2018-08-20T15:35:04.520Z,5.10
2018-08-20T15:37:33.245Z,5.00
2018-08-20T15:40:02.109Z,5.33
2018-08-20T15:42:31.282Z,5.10
2018-08-20T15:45:00.458Z,5.22
2018-08-20T15:47:29.322Z,5.53
2018-08-20T15:49:58.324Z,5.42
2018-08-20T15:52:27.360Z,5.25
2018-08-20T15:57:29.198Z,5.62
2018-08-20T15:59:58.323Z,6.17
2018-08-20T16:02:27.129Z,5.95
2018-08-20T16:04:56.040Z,5.67
2018-08-20T16:07:24.822Z,5.92
2018-08-20T16:09:53.555Z,5.50
2018-08-20T16:12:22.301Z,5.78
2018-08-20T16:14:51.197Z,5.83
2018-08-20T16:17:20.058Z,5.33
2018-08-20T16:19:48.869Z,5.85
2018-08-20T16:22:17.737Z,5.90
2018-08-20T16:24:46.537Z,6.08
2018-08-20T16:27:15.637Z,5.70
2018-08-20T16:29:44.336Z,5.78
2018-08-20T16:32:13.177Z,6.20
2018-08-20T16:34:42.036Z,6.05
2018-08-20T16:37:10.918Z,6.30
2018-08-20T16:39:39.724Z,6.40
2018-08-20T16:42:08.616Z,5.90
2018-08-20T16:44:37.462Z,6.80
2018-08-20T16:47:06.359Z,6.62
2018-08-20T16:49:36.438Z,6.62
2018-08-20T16:52:05.477Z,6.87
2018-08-20T16:54:34.643Z,6.95
2018-08-20T16:57:03.722Z,6.85
2018-08-20T16:59:34.322Z,6.65
2018-08-20T17:02:03.770Z,6.53
2018-08-20T17:04:39.757Z,6.95
2018-08-20T17:07:08.869Z,7.47
2018-08-20T17:09:38.309Z,7.10
2018-08-20T17:12:07.690Z,6.55
2018-08-20T17:14:36.551Z,7.40
2018-08-20T17:17:05.843Z,6.87
2018-08-20T17:19:35.561Z,7.13
2018-08-20T17:22:04.861Z,7.60
2018-08-20T17:24:40.043Z,7.57
2018-08-20T17:27:09.642Z,7.80
2018-08-20T17:29:39.501Z,7.33
2018-08-20T17:32:10.144Z,7.33
2018-08-20T17:34:41.983Z,7.73
2018-08-20T17:37:12.023Z,7.97
2018-08-20T17:39:50.602Z,8.43
2018-08-20T17:42:20.448Z,7.97
2018-08-20T17:44:50.302Z,8.20
2018-08-20T17:47:25.363Z,8.30
2018-08-20T17:49:55.922Z,8.30
2018-08-20T17:52:32.063Z,8.23
2018-08-20T17:55:03.830Z,8.77
2018-08-20T17:57:33.782Z,8.20
2018-08-20T18:00:28.444Z,9.43
2018-08-20T18:02:57.963Z,8.83
2018-08-20T18:05:26.863Z,8.97
2018-08-20T18:07:55.960Z,9.43
2018-08-20T18:10:25.280Z,9.17
2018-08-20T18:12:54.400Z,9.10
2018-08-20T18:15:24.182Z,9.37
2018-08-20T18:17:54.144Z,9.17
2018-08-20T18:20:23.764Z,9.23
2018-08-20T18:22:55.106Z,8.83
2018-08-20T18:25:29.344Z,10.13
2018-08-20T18:27:59.041Z,9.93
2018-08-20T18:30:28.641Z,9.53
2018-08-20T18:32:57.841Z,10.40
2018-08-20T18:35:32.542Z,9.83
2018-08-20T18:38:02.631Z,10.53
2018-08-20T18:40:32.003Z,10.47
2018-08-20T18:43:01.623Z,9.87
2018-08-20T18:45:30.922Z,10.43
2018-08-20T18:48:00.381Z,10.20
2018-08-20T18:50:29.701Z,10.27
2018-08-20T18:52:59.064Z,10.50
2018-08-20T18:55:29.086Z,10.03
2018-08-20T18:57:58.170Z,10.03
2018-08-20T19:00:28.202Z,10.00
2018-08-20T19:03:00.246Z,9.63
2018-08-20T19:05:29.961Z,9.70
2018-08-20T19:07:59.201Z,10.07
2018-08-20T19:10:31.021Z,10.53
2018-08-20T19:13:00.522Z,10.40
2018-08-20T19:15:35.342Z,10.07
2018-08-20T19:18:04.840Z,10.37
2018-08-20T19:20:33.982Z,9.13
2018-08-20T19:23:03.122Z,9.50
2018-08-20T19:25:32.562Z,9.60
2018-08-20T19:28:07.960Z,9.33
2018-08-20T19:30:37.020Z,9.40
2018-08-20T19:33:10.740Z,9.73
2018-08-20T19:35:39.841Z,9.23
2018-08-20T19:38:09.341Z,9.63
2018-08-20T19:40:38.782Z,10.87
2018-08-20T19:43:07.883Z,10.70
2018-08-20T19:45:42.980Z,10.23
2018-08-20T19:48:12.524Z,10.07
2018-08-20T19:50:41.503Z,9.97
2018-08-20T19:53:17.809Z,9.97
2018-08-20T19:55:46.923Z,9.27
2018-08-20T19:58:20.812Z,10.03
2018-08-20T20:00:55.812Z,9.90
2018-08-20T20:03:24.699Z,10.07
2018-08-20T20:05:53.710Z,10.10
2018-08-20T20:08:22.721Z,9.90
2018-08-20T20:10:51.795Z,8.90
2018-08-20T20:13:20.684Z,9.00
2018-08-20T20:15:51.862Z,8.80
2018-08-20T20:18:21.577Z,8.17
2018-08-20T20:20:50.784Z,8.37
2018-08-20T20:23:19.925Z,8.30
2018-08-20T20:25:53.120Z,7.97
2018-08-20T20:28:22.443Z,8.10
2018-08-20T20:30:51.565Z,9.00
2018-08-20T20:33:20.527Z,9.00
2018-08-20T20:35:49.744Z,8.63
2018-08-20T20:38:18.888Z,8.70
2018-08-20T20:40:48.386Z,8.43
2018-08-20T20:43:19.355Z,8.10
2018-08-20T20:45:48.465Z,8.40
2018-08-20T20:48:17.665Z,8.17
2018-08-20T20:50:46.753Z,8.20
2018-08-20T20:53:39.261Z,7.93
2018-08-20T20:56:20.941Z,8.10
2018-08-20T20:58:49.764Z,8.40
2018-08-20T21:01:19.082Z,8.23
2018-08-20T21:03:48.641Z,8.60
2018-08-20T21:06:17.661Z,8.60
2018-08-20T21:08:46.605Z,8.57
2018-08-20T21:11:16.721Z,8.77
2018-08-20T21:13:46.541Z,9.03
2018-08-20T21:16:16.785Z,9.27
2018-08-20T21:18:49.149Z,9.43
2018-08-20T21:21:18.881Z,9.07
2018-08-20T21:23:47.881Z,8.93
2018-08-20T21:26:17.301Z,9.17
2018-08-20T21:28:50.922Z,8.70
2018-08-20T21:31:21.441Z,9.57
2018-08-20T21:33:53.463Z,9.10
2018-08-20T21:36:23.010Z,9.10
2018-08-20T21:38:52.223Z,9.53
2018-08-20T21:41:23.099Z,9.93
2018-08-20T21:43:52.322Z,8.70
2018-08-20T21:46:21.641Z,10.13
2018-08-20T21:48:50.883Z,9.80
2018-08-20T21:51:24.883Z,9.23
2018-08-20T21:53:54.241Z,10.10
2018-08-20T21:56:24.041Z,9.47
2018-08-20T21:58:53.022Z,8.90
2018-08-20T22:01:22.425Z,8.83
2018-08-20T22:03:51.541Z,9.70
2018-08-20T22:06:20.741Z,9.30
2018-08-20T22:08:50.243Z,10.27
2018-08-20T22:11:19.424Z,9.77
2018-08-20T22:13:48.849Z,9.00
2018-08-20T22:16:21.421Z,9.60
2018-08-20T22:18:54.382Z,11.10
2018-08-20T22:21:24.183Z,9.83
2018-08-20T22:23:57.222Z,9.77
2018-08-20T22:26:26.300Z,9.50
2018-08-20T22:28:55.402Z,9.73
2018-08-20T22:31:24.401Z,10.10
2018-08-20T22:34:02.941Z,9.87
2018-08-20T22:36:33.005Z,9.93
2018-08-20T22:39:03.660Z,9.73
2018-08-20T22:41:32.942Z,9.97
2018-08-20T22:44:01.983Z,9.97
2018-08-20T22:46:31.242Z,9.97
2018-08-20T22:49:01.161Z,10.60
2018-08-20T22:51:30.923Z,10.60
2018-08-20T22:54:02.041Z,10.57
2018-08-20T22:56:32.701Z,9.90
2018-08-20T22:59:04.202Z,10.43
2018-08-20T23:01:33.522Z,10.47
2018-08-20T23:04:02.861Z,10.10
2018-08-20T23:06:32.000Z,10.40
2018-08-20T23:09:10.142Z,10.77
2018-08-20T23:11:42.439Z,10.07
2018-08-20T23:14:13.160Z,10.13
2018-08-20T23:16:42.239Z,9.63
2018-08-20T23:19:11.420Z,9.53
2018-08-20T23:21:42.449Z,10.20
2018-08-20T23:24:12.404Z,10.67
2018-08-20T23:26:43.522Z,10.13
2018-08-20T23:29:13.140Z,10.13
2018-08-20T23:31:42.488Z,10.40
2018-08-20T23:34:13.500Z,10.87
2018-08-20T23:36:43.099Z,10.23
2018-08-20T23:39:14.920Z,10.60
2018-08-20T23:41:44.380Z,10.20
2018-08-20T23:44:16.801Z,11.43
2018-08-20T23:46:49.165Z,10.10
2018-08-20T23:49:18.440Z,10.87
2018-08-20T23:51:47.580Z,10.63
2018-08-20T23:54:16.802Z,9.93
2018-08-20T23:56:46.440Z,9.53
2018-08-20T23:59:15.824Z,10.83
